sensor_id;sensor_type;location;lat;lon;timestamp;temperature;humidity
2030;DHT22;1020;48.854;8.830;2023-03-23T00:00:22;13.20;99.90
2030;DHT22;1020;48.854;8.830;2023-03-23T00:02:49;13.20;99.90
2030;DHT22;1020;48.854;8.830;2023-03-23T00:05:16;13.20;99.90
2030;DHT22;1020;48.854;8.830;2023-03-23T00:07:44;13.20;99.90
2030;DHT22;1020;48.854;8.830;2023-03-23T00:10:11;13.10;99.90
2030;DHT22;1020;48.854;8.830;2023-03-23T00:12:38;13.10;99.90
2030;DHT22;1020;48.854;8.830;2023-03-23T00:15:08;13.10;99.90
2030;DHT22;1020;48.854;8.830;2023-03-23T00:17:38;13.10;99.90
2030;DHT22;1020;48.854;8.830;2023-03-23T00:20:06;13.00;99.90
2030;DHT22;1020;48.854;8.830;2023-03-23T00:22:35;13.00;99.90
2030;DHT22;1020;48.854;8.830;2023-03-23T00:25:05;13.00;99.90
2030;DHT22;1020;48.854;8.830;2023-03-23T00:27:33;13.00;99.90
2030;DHT22;1020;48.854;8.830;2023-03-23T00:30:00;13.00;99.90
2030;DHT22;1020;48.854;8.830;2023-03-23T00:32:27;13.00;99.90
2030;DHT22;1020;48.854;8.830;2023-03-23T00:34:54;13.00;99.90
2030;DHT22;1020;48.854;8.830;2023-03-23T00:37:21;13.10;99.90
2030;DHT22;1020;48.854;8.830;2023-03-23T00:39:49;12.90;99.90
2030;DHT22;1020;48.854;8.830;2023-03-23T00:42:18;12.90;99.90
2030;DHT22;1020;48.854;8.830;2023-03-23T00:44:47;12.80;99.90
2030;DHT22;1020;48.854;8.830;2023-03-23T00:47:14;12.80;99.90
2030;DHT22;1020;48.854;8.830;2023-03-23T00:49:43;12.70;99.90
2030;DHT22;1020;48.854;8.830;2023-03-23T00:52:09;12.70;99.90
2030;DHT22;1020;48.854;8.830;2023-03-23T00:54:38;12.70;99.90
2030;DHT22;1020;48.854;8.830;2023-03-23T00:57:05;12.60;99.90
2030;DHT22;1020;48.854;8.830;2023-03-23T00:59:33;12.60;99.90
2030;DHT22;1020;48.854;8.830;2023-03-23T01:02:00;12.60;99.90
2030;DHT22;1020;48.854;8.830;2023-03-23T01:04:26;12.60;99.90
2030;DHT22;1020;48.854;8.830;2023-03-23T01:06:56;12.60;99.90
2030;DHT22;1020;48.854;8.830;2023-03-23T01:09:25;12.60;99.90
2030;DHT22;1020;48.854;8.830;2023-03-23T01:11:53;12.60;99.90
2030;DHT22;1020;48.854;8.830;2023-03-23T01:14:21;12.50;99.90
2030;DHT22;1020;48.854;8.830;2023-03-23T01:16:49;12.60;99.90
2030;DHT22;1020;48.854;8.830;2023-03-23T01:19:16;12.50;99.90
2030;DHT22;1020;48.854;8.830;2023-03-23T01:21:43;12.40;99.90
2030;DHT22;1020;48.854;8.830;2023-03-23T01:24:10;12.40;99.90
2030;DHT22;1020;48.854;8.830;2023-03-23T01:26:37;12.30;99.90
2030;DHT22;1020;48.854;8.830;2023-03-23T01:29:04;12.30;99.90
2030;DHT22;1020;48.854;8.830;2023-03-23T01:31:30;12.30;99.90
2030;DHT22;1020;48.854;8.830;2023-03-23T01:33:58;12.20;99.90
2030;DHT22;1020;48.854;8.830;2023-03-23T01:36:27;12.20;99.90
2030;DHT22;1020;48.854;8.830;2023-03-23T01:38:54;12.20;99.90
2030;DHT22;1020;48.854;8.830;2023-03-23T01:41:23;12.10;99.90
2030;DHT22;1020;48.854;8.830;2023-03-23T01:43:57;12.10;99.90
2030;DHT22;1020;48.854;8.830;2023-03-23T01:46:26;12.10;99.90
2030;DHT22;1020;48.854;8.830;2023-03-23T01:48:54;12.10;99.90
2030;DHT22;1020;48.854;8.830;2023-03-23T01:51:23;12.10;99.90
2030;DHT22;1020;48.854;8.830;2023-03-23T01:53:54;12.10;99.90
2030;DHT22;1020;48.854;8.830;2023-03-23T01:56:25;12.10;99.90
2030;DHT22;1020;48.854;8.830;2023-03-23T01:58:55;12.10;99.90
2030;DHT22;1020;48.854;8.830;2023-03-23T02:01:23;12.00;99.90
2030;DHT22;1020;48.854;8.830;2023-03-23T02:03:52;12.00;99.90
2030;DHT22;1020;48.854;8.830;2023-03-23T02:06:20;12.00;99.90
2030;DHT22;1020;48.854;8.830;2023-03-23T02:08:49;12.00;99.90
2030;DHT22;1020;48.854;8.830;2023-03-23T02:11:19;11.90;99.90
2030;DHT22;1020;48.854;8.830;2023-03-23T02:13:47;11.90;99.90
2030;DHT22;1020;48.854;8.830;2023-03-23T02:16:21;11.80;99.90
2030;DHT22;1020;48.854;8.830;2023-03-23T02:18:57;11.80;99.90
2030;DHT22;1020;48.854;8.830;2023-03-23T02:21:50;11.80;99.90
2030;DHT22;1020;48.854;8.830;2023-03-23T02:24:52;11.80;99.90
2030;DHT22;1020;48.854;8.830;2023-03-23T02:30:35;11.80;99.90
2030;DHT22;1020;48.854;8.830;2023-03-23T02:33:31;11.80;99.90
2030;DHT22;1020;48.854;8.830;2023-03-23T02:36:07;11.90;99.90
2030;DHT22;1020;48.854;8.830;2023-03-23T02:38:39;11.80;99.90
2030;DHT22;1020;48.854;8.830;2023-03-23T02:41:10;11.70;99.90
2030;DHT22;1020;48.854;8.830;2023-03-23T02:43:40;11.80;99.90
2030;DHT22;1020;48.854;8.830;2023-03-23T02:46:10;11.80;99.90
2030;DHT22;1020;48.854;8.830;2023-03-23T02:48:39;11.80;99.90
2030;DHT22;1020;48.854;8.830;2023-03-23T02:51:08;11.90;99.90
2030;DHT22;1020;48.854;8.830;2023-03-23T02:53:38;11.90;99.90
2030;DHT22;1020;48.854;8.830;2023-03-23T02:56:08;11.90;99.90
2030;DHT22;1020;48.854;8.830;2023-03-23T02:58:36;11.90;99.90
2030;DHT22;1020;48.854;8.830;2023-03-23T03:04:12;11.80;99.90
2030;DHT22;1020;48.854;8.830;2023-03-23T03:06:45;11.80;99.90
2030;DHT22;1020;48.854;8.830;2023-03-23T03:09:19;11.70;99.90
2030;DHT22;1020;48.854;8.830;2023-03-23T03:11:51;11.80;99.90
2030;DHT22;1020;48.854;8.830;2023-03-23T03:14:21;11.90;99.90
2030;DHT22;1020;48.854;8.830;2023-03-23T03:16:52;12.00;99.90
2030;DHT22;1020;48.854;8.830;2023-03-23T03:19:26;12.10;99.90
2030;DHT22;1020;48.854;8.830;2023-03-23T03:21:55;12.20;99.90
2030;DHT22;1020;48.854;8.830;2023-03-23T03:24:26;12.30;99.90
2030;DHT22;1020;48.854;8.830;2023-03-23T03:26:55;12.40;99.90
2030;DHT22;1020;48.854;8.830;2023-03-23T03:29:27;12.50;99.90
2030;DHT22;1020;48.854;8.830;2023-03-23T03:31:56;10.60;99.90
2030;DHT22;1020;48.854;8.830;2023-03-23T03:34:26;12.50;99.90
2030;DHT22;1020;48.854;8.830;2023-03-23T03:36:54;12.50;99.90
2030;DHT22;1020;48.854;8.830;2023-03-23T03:39:24;12.50;99.90
2030;DHT22;1020;48.854;8.830;2023-03-23T03:41:51;12.60;99.90
2030;DHT22;1020;48.854;8.830;2023-03-23T03:44:19;12.60;99.90
2030;DHT22;1020;48.854;8.830;2023-03-23T03:46:46;12.50;99.90
2030;DHT22;1020;48.854;8.830;2023-03-23T03:49:13;12.50;99.90
2030;DHT22;1020;48.854;8.830;2023-03-23T03:51:42;12.60;99.90
2030;DHT22;1020;48.854;8.830;2023-03-23T03:54:09;12.60;99.90
2030;DHT22;1020;48.854;8.830;2023-03-23T03:56:36;12.60;99.90
2030;DHT22;1020;48.854;8.830;2023-03-23T03:59:06;12.60;99.90
2030;DHT22;1020;48.854;8.830;2023-03-23T04:01:33;12.60;99.90
2030;DHT22;1020;48.854;8.830;2023-03-23T04:04:00;12.60;99.90
2030;DHT22;1020;48.854;8.830;2023-03-23T04:06:27;12.60;99.90
2030;DHT22;1020;48.854;8.830;2023-03-23T04:08:56;12.60;99.90
2030;DHT22;1020;48.854;8.830;2023-03-23T04:11:24;12.50;99.90
2030;DHT22;1020;48.854;8.830;2023-03-23T04:13:51;12.50;99.90
2030;DHT22;1020;48.854;8.830;2023-03-23T04:16:18;12.50;99.90
2030;DHT22;1020;48.854;8.830;2023-03-23T04:18:46;12.50;99.90
2030;DHT22;1020;48.854;8.830;2023-03-23T04:21:14;12.50;99.90
2030;DHT22;1020;48.854;8.830;2023-03-23T04:23:41;12.50;99.90
2030;DHT22;1020;48.854;8.830;2023-03-23T04:26:09;12.60;99.90
2030;DHT22;1020;48.854;8.830;2023-03-23T04:28:38;12.60;99.90
2030;DHT22;1020;48.854;8.830;2023-03-23T04:31:06;12.60;99.90
2030;DHT22;1020;48.854;8.830;2023-03-23T04:33:34;12.60;99.90
2030;DHT22;1020;48.854;8.830;2023-03-23T04:36:03;12.60;99.90
2030;DHT22;1020;48.854;8.830;2023-03-23T04:38:32;12.60;99.90
2030;DHT22;1020;48.854;8.830;2023-03-23T04:41:00;12.60;99.90
2030;DHT22;1020;48.854;8.830;2023-03-23T04:43:28;12.60;99.90
2030;DHT22;1020;48.854;8.830;2023-03-23T04:45:56;12.60;99.90
2030;DHT22;1020;48.854;8.830;2023-03-23T04:48:24;12.60;99.90
2030;DHT22;1020;48.854;8.830;2023-03-23T04:50:51;12.70;99.90
2030;DHT22;1020;48.854;8.830;2023-03-23T04:53:18;12.60;99.90
2030;DHT22;1020;48.854;8.830;2023-03-23T04:55:46;12.60;99.90
2030;DHT22;1020;48.854;8.830;2023-03-23T04:58:15;12.60;99.90
2030;DHT22;1020;48.854;8.830;2023-03-23T05:00:43;12.60;99.90
2030;DHT22;1020;48.854;8.830;2023-03-23T05:03:15;12.70;99.90
2030;DHT22;1020;48.854;8.830;2023-03-23T05:05:42;12.60;99.90
2030;DHT22;1020;48.854;8.830;2023-03-23T05:08:12;12.70;99.90
2030;DHT22;1020;48.854;8.830;2023-03-23T05:10:39;12.70;99.90
2030;DHT22;1020;48.854;8.830;2023-03-23T05:13:06;12.70;99.90
2030;DHT22;1020;48.854;8.830;2023-03-23T05:15:33;12.70;99.90
2030;DHT22;1020;48.854;8.830;2023-03-23T05:18:01;12.70;99.90
2030;DHT22;1020;48.854;8.830;2023-03-23T05:20:27;12.80;99.90
2030;DHT22;1020;48.854;8.830;2023-03-23T05:22:55;12.80;99.90
2030;DHT22;1020;48.854;8.830;2023-03-23T05:25:23;12.80;99.90
2030;DHT22;1020;48.854;8.830;2023-03-23T05:27:49;12.80;99.90
2030;DHT22;1020;48.854;8.830;2023-03-23T05:30:18;10.90;99.90
2030;DHT22;1020;48.854;8.830;2023-03-23T05:32:45;12.70;99.90
2030;DHT22;1020;48.854;8.830;2023-03-23T05:35:18;12.70;99.90
2030;DHT22;1020;48.854;8.830;2023-03-23T05:37:45;12.70;99.90
2030;DHT22;1020;48.854;8.830;2023-03-23T05:40:12;12.60;99.90
2030;DHT22;1020;48.854;8.830;2023-03-23T05:42:40;12.60;99.90
2030;DHT22;1020;48.854;8.830;2023-03-23T05:45:08;12.60;99.90
2030;DHT22;1020;48.854;8.830;2023-03-23T05:47:36;12.70;99.90
2030;DHT22;1020;48.854;8.830;2023-03-23T05:50:04;12.60;99.90
2030;DHT22;1020;48.854;8.830;2023-03-23T05:52:33;12.60;99.90
2030;DHT22;1020;48.854;8.830;2023-03-23T05:55:01;12.50;99.90
2030;DHT22;1020;48.854;8.830;2023-03-23T05:57:29;12.50;99.90
2030;DHT22;1020;48.854;8.830;2023-03-23T05:59:56;12.50;99.90
2030;DHT22;1020;48.854;8.830;2023-03-23T06:02:24;12.50;99.90
2030;DHT22;1020;48.854;8.830;2023-03-23T06:04:53;12.50;99.90
2030;DHT22;1020;48.854;8.830;2023-03-23T06:07:23;12.50;99.90
2030;DHT22;1020;48.854;8.830;2023-03-23T06:09:51;12.50;99.90
2030;DHT22;1020;48.854;8.830;2023-03-23T06:12:18;12.40;99.90
2030;DHT22;1020;48.854;8.830;2023-03-23T06:14:45;12.40;99.90
2030;DHT22;1020;48.854;8.830;2023-03-23T06:17:14;12.30;99.90
2030;DHT22;1020;48.854;8.830;2023-03-23T06:19:41;12.20;1.00
2030;DHT22;1020;48.854;8.830;2023-03-23T06:22:08;12.10;1.00
2030;DHT22;1020;48.854;8.830;2023-03-23T06:24:36;11.90;1.00
2030;DHT22;1020;48.854;8.830;2023-03-23T06:27:04;11.80;1.00
2030;DHT22;1020;48.854;8.830;2023-03-23T06:29:31;11.80;81.60
2030;DHT22;1020;48.854;8.830;2023-03-23T06:32:00;11.80;99.90
2030;DHT22;1020;48.854;8.830;2023-03-23T06:34:28;11.80;99.90
2030;DHT22;1020;48.854;8.830;2023-03-23T06:36:56;11.90;99.90
2030;DHT22;1020;48.854;8.830;2023-03-23T06:39:23;11.90;99.90
2030;DHT22;1020;48.854;8.830;2023-03-23T06:41:50;12.10;99.90
2030;DHT22;1020;48.854;8.830;2023-03-23T06:44:18;12.20;99.90
2030;DHT22;1020;48.854;8.830;2023-03-23T06:46:45;12.30;97.00
2030;DHT22;1020;48.854;8.830;2023-03-23T06:49:14;12.50;1.00
2030;DHT22;1020;48.854;8.830;2023-03-23T06:51:41;12.60;1.00
2030;DHT22;1020;48.854;8.830;2023-03-23T06:54:08;12.60;1.00
2030;DHT22;1020;48.854;8.830;2023-03-23T06:56:35;12.70;1.00
2030;DHT22;1020;48.854;8.830;2023-03-23T06:59:02;12.80;1.00
2030;DHT22;1020;48.854;8.830;2023-03-23T07:01:30;12.80;1.00
2030;DHT22;1020;48.854;8.830;2023-03-23T07:03:57;12.80;1.00
2030;DHT22;1020;48.854;8.830;2023-03-23T07:06:24;12.80;1.00
2030;DHT22;1020;48.854;8.830;2023-03-23T07:08:51;12.50;1.00
2030;DHT22;1020;48.854;8.830;2023-03-23T07:11:18;12.80;1.00
2030;DHT22;1020;48.854;8.830;2023-03-23T07:13:45;12.80;1.00
2030;DHT22;1020;48.854;8.830;2023-03-23T07:16:11;12.80;1.00
2030;DHT22;1020;48.854;8.830;2023-03-23T07:18:40;12.80;1.00
2030;DHT22;1020;48.854;8.830;2023-03-23T07:21:07;12.80;1.00
2030;DHT22;1020;48.854;8.830;2023-03-23T07:23:33;12.80;1.00
2030;DHT22;1020;48.854;8.830;2023-03-23T07:26:00;12.80;1.00
2030;DHT22;1020;48.854;8.830;2023-03-23T07:28:29;12.80;1.00
2030;DHT22;1020;48.854;8.830;2023-03-23T07:30:56;12.80;1.00
2030;DHT22;1020;48.854;8.830;2023-03-23T07:33:23;12.80;1.00
2030;DHT22;1020;48.854;8.830;2023-03-23T07:35:51;12.80;1.00
2030;DHT22;1020;48.854;8.830;2023-03-23T07:38:17;12.90;1.00
2030;DHT22;1020;48.854;8.830;2023-03-23T07:40:46;13.00;1.00
2030;DHT22;1020;48.854;8.830;2023-03-23T07:43:12;13.00;1.00
2030;DHT22;1020;48.854;8.830;2023-03-23T07:45:39;13.10;1.00
2030;DHT22;1020;48.854;8.830;2023-03-23T07:48:06;13.20;1.00
2030;DHT22;1020;48.854;8.830;2023-03-23T07:50:33;13.30;1.00
2030;DHT22;1020;48.854;8.830;2023-03-23T07:53:04;13.40;1.00
2030;DHT22;1020;48.854;8.830;2023-03-23T07:55:31;13.40;1.00
2030;DHT22;1020;48.854;8.830;2023-03-23T07:57:59;13.40;1.00
2030;DHT22;1020;48.854;8.830;2023-03-23T08:00:26;13.30;1.00
2030;DHT22;1020;48.854;8.830;2023-03-23T08:02:54;13.30;1.00
2030;DHT22;1020;48.854;8.830;2023-03-23T08:05:22;13.20;1.00
2030;DHT22;1020;48.854;8.830;2023-03-23T08:07:51;13.20;1.00
2030;DHT22;1020;48.854;8.830;2023-03-23T08:10:22;13.30;1.00
2030;DHT22;1020;48.854;8.830;2023-03-23T08:12:51;13.30;1.00
2030;DHT22;1020;48.854;8.830;2023-03-23T08:15:18;13.50;1.00
2030;DHT22;1020;48.854;8.830;2023-03-23T08:17:47;13.50;1.00
2030;DHT22;1020;48.854;8.830;2023-03-23T08:20:14;13.50;1.00
2030;DHT22;1020;48.854;8.830;2023-03-23T08:22:43;13.30;1.00
2030;DHT22;1020;48.854;8.830;2023-03-23T08:25:12;13.20;1.00
2030;DHT22;1020;48.854;8.830;2023-03-23T08:27:41;13.10;1.00
2030;DHT22;1020;48.854;8.830;2023-03-23T08:30:10;13.00;9.80
2030;DHT22;1020;48.854;8.830;2023-03-23T08:32:37;15.10;15.00
2030;DHT22;1020;48.854;8.830;2023-03-23T08:35:05;12.90;19.20
2030;DHT22;1020;48.854;8.830;2023-03-23T08:37:32;12.90;75.30
2030;DHT22;1020;48.854;8.830;2023-03-23T08:39:59;12.90;8.60
2030;DHT22;1020;48.854;8.830;2023-03-23T08:42:32;12.90;42.30
2030;DHT22;1020;48.854;8.830;2023-03-23T08:45:00;13.00;39.20
2030;DHT22;1020;48.854;8.830;2023-03-23T08:47:28;12.90;5.80
2030;DHT22;1020;48.854;8.830;2023-03-23T08:49:55;13.00;1.00
2030;DHT22;1020;48.854;8.830;2023-03-23T08:52:22;12.90;17.60
2030;DHT22;1020;48.854;8.830;2023-03-23T08:54:49;12.90;13.50
2030;DHT22;1020;48.854;8.830;2023-03-23T08:57:15;12.80;50.30
2030;DHT22;1020;48.854;8.830;2023-03-23T08:59:44;12.80;26.00
2030;DHT22;1020;48.854;8.830;2023-03-23T09:02:12;12.80;34.20
2030;DHT22;1020;48.854;8.830;2023-03-23T09:04:39;12.70;24.30
2030;DHT22;1020;48.854;8.830;2023-03-23T09:07:08;12.80;18.90
2030;DHT22;1020;48.854;8.830;2023-03-23T09:09:36;12.90;40.10
2030;DHT22;1020;48.854;8.830;2023-03-23T09:12:05;13.00;9.70
2030;DHT22;1020;48.854;8.830;2023-03-23T09:14:31;13.00;1.00
2030;DHT22;1020;48.854;8.830;2023-03-23T09:16:58;11.70;1.00
2030;DHT22;1020;48.854;8.830;2023-03-23T09:19:27;13.10;1.00
2030;DHT22;1020;48.854;8.830;2023-03-23T09:21:54;13.20;18.00
2030;DHT22;1020;48.854;8.830;2023-03-23T09:24:21;13.30;76.00
2030;DHT22;1020;48.854;8.830;2023-03-23T09:26:48;13.20;99.90
2030;DHT22;1020;48.854;8.830;2023-03-23T09:29:14;13.10;99.90
2030;DHT22;1020;48.854;8.830;2023-03-23T09:31:42;12.90;99.90
2030;DHT22;1020;48.854;8.830;2023-03-23T09:34:12;12.90;99.90
2030;DHT22;1020;48.854;8.830;2023-03-23T09:36:40;12.90;99.90
2030;DHT22;1020;48.854;8.830;2023-03-23T09:39:08;13.00;1.00
2030;DHT22;1020;48.854;8.830;2023-03-23T09:42:00;13.20;99.90
2030;DHT22;1020;48.854;8.830;2023-03-23T09:44:39;13.10;1.00
2030;DHT22;1020;48.854;8.830;2023-03-23T09:47:11;13.00;1.00
2030;DHT22;1020;48.854;8.830;2023-03-23T09:49:45;12.90;1.00
2030;DHT22;1020;48.854;8.830;2023-03-23T09:52:17;13.00;99.90
2030;DHT22;1020;48.854;8.830;2023-03-23T09:54:47;12.90;1.00
2030;DHT22;1020;48.854;8.830;2023-03-23T09:57:18;12.80;1.00
2030;DHT22;1020;48.854;8.830;2023-03-23T09:59:51;12.90;27.40
2030;DHT22;1020;48.854;8.830;2023-03-23T10:02:24;13.00;99.90
2030;DHT22;1020;48.854;8.830;2023-03-23T10:04:56;13.30;32.20
2030;DHT22;1020;48.854;8.830;2023-03-23T10:07:26;13.30;99.90
2030;DHT22;1020;48.854;8.830;2023-03-23T10:09:57;13.50;99.90
2030;DHT22;1020;48.854;8.830;2023-03-23T10:12:30;13.40;99.90
2030;DHT22;1020;48.854;8.830;2023-03-23T10:15:12;13.50;55.20
2030;DHT22;1020;48.854;8.830;2023-03-23T10:17:45;13.70;1.00
2030;DHT22;1020;48.854;8.830;2023-03-23T10:20:29;14.10;1.00
2030;DHT22;1020;48.854;8.830;2023-03-23T10:23:09;14.10;99.90
2030;DHT22;1020;48.854;8.830;2023-03-23T10:25:41;13.90;99.90
2030;DHT22;1020;48.854;8.830;2023-03-23T10:28:11;14.00;99.90
2030;DHT22;1020;48.854;8.830;2023-03-23T10:30:41;14.10;99.90
2030;DHT22;1020;48.854;8.830;2023-03-23T10:33:17;14.20;99.90
2030;DHT22;1020;48.854;8.830;2023-03-23T10:35:48;13.90;99.90
2030;DHT22;1020;48.854;8.830;2023-03-23T10:38:22;13.80;99.90
2030;DHT22;1020;48.854;8.830;2023-03-23T10:40:53;13.80;99.90
2030;DHT22;1020;48.854;8.830;2023-03-23T10:43:22;13.80;99.90
2030;DHT22;1020;48.854;8.830;2023-03-23T10:45:54;13.80;1.00
2030;DHT22;1020;48.854;8.830;2023-03-23T10:48:25;13.50;99.90
2030;DHT22;1020;48.854;8.830;2023-03-23T10:50:56;13.40;1.00
2030;DHT22;1020;48.854;8.830;2023-03-23T10:53:30;13.60;99.90
2030;DHT22;1020;48.854;8.830;2023-03-23T10:55:58;13.70;99.90
2030;DHT22;1020;48.854;8.830;2023-03-23T10:58:27;13.70;1.00
2030;DHT22;1020;48.854;8.830;2023-03-23T11:00:56;13.60;1.00
2030;DHT22;1020;48.854;8.830;2023-03-23T11:03:39;13.60;1.00
2030;DHT22;1020;48.854;8.830;2023-03-23T11:06:08;13.50;1.00
2030;DHT22;1020;48.854;8.830;2023-03-23T11:08:48;13.60;1.00
2030;DHT22;1020;48.854;8.830;2023-03-23T11:11:19;13.60;99.90
2030;DHT22;1020;48.854;8.830;2023-03-23T11:13:49;13.80;1.00
2030;DHT22;1020;48.854;8.830;2023-03-23T11:16:24;13.80;99.90
2030;DHT22;1020;48.854;8.830;2023-03-23T11:18:52;13.80;99.90
2030;DHT22;1020;48.854;8.830;2023-03-23T11:21:21;13.90;99.90
2030;DHT22;1020;48.854;8.830;2023-03-23T11:23:52;13.90;99.90
2030;DHT22;1020;48.854;8.830;2023-03-23T11:26:22;14.00;99.90
2030;DHT22;1020;48.854;8.830;2023-03-23T11:28:53;14.20;99.90
2030;DHT22;1020;48.854;8.830;2023-03-23T11:31:22;14.60;97.50
2030;DHT22;1020;48.854;8.830;2023-03-23T11:33:53;14.30;99.90
2030;DHT22;1020;48.854;8.830;2023-03-23T11:36:21;14.40;83.00
2030;DHT22;1020;48.854;8.830;2023-03-23T11:38:54;14.40;45.70
2030;DHT22;1020;48.854;8.830;2023-03-23T11:41:23;14.60;37.60
2030;DHT22;1020;48.854;8.830;2023-03-23T11:43:52;14.50;9.40
2030;DHT22;1020;48.854;8.830;2023-03-23T11:46:29;14.70;23.20
2030;DHT22;1020;48.854;8.830;2023-03-23T11:49:01;14.70;20.30
2030;DHT22;1020;48.854;8.830;2023-03-23T11:51:32;14.80;3.80
2030;DHT22;1020;48.854;8.830;2023-03-23T11:54:05;14.80;1.00
2030;DHT22;1020;48.854;8.830;2023-03-23T11:56:35;14.60;1.00
2030;DHT22;1020;48.854;8.830;2023-03-23T11:59:05;14.60;1.00
2030;DHT22;1020;48.854;8.830;2023-03-23T12:01:51;14.70;1.00
2030;DHT22;1020;48.854;8.830;2023-03-23T12:04:46;14.60;1.00
2030;DHT22;1020;48.854;8.830;2023-03-23T12:07:47;14.50;1.00
2030;DHT22;1020;48.854;8.830;2023-03-23T12:10:25;14.50;1.00
2030;DHT22;1020;48.854;8.830;2023-03-23T12:13:01;14.50;1.00
2030;DHT22;1020;48.854;8.830;2023-03-23T12:15:37;14.50;1.00
2030;DHT22;1020;48.854;8.830;2023-03-23T12:18:12;14.60;1.00
2030;DHT22;1020;48.854;8.830;2023-03-23T12:20:50;14.60;1.00
2030;DHT22;1020;48.854;8.830;2023-03-23T12:23:23;14.60;1.00
2030;DHT22;1020;48.854;8.830;2023-03-23T12:26:16;14.80;1.00
2030;DHT22;1020;48.854;8.830;2023-03-23T12:29:03;15.00;1.00
2030;DHT22;1020;48.854;8.830;2023-03-23T12:31:42;15.10;1.00
2030;DHT22;1020;48.854;8.830;2023-03-23T12:34:17;15.30;1.00
2030;DHT22;1020;48.854;8.830;2023-03-23T12:36:56;15.40;1.00
2030;DHT22;1020;48.854;8.830;2023-03-23T12:39:53;15.50;1.00
2030;DHT22;1020;48.854;8.830;2023-03-23T12:42:30;15.40;1.00
2030;DHT22;1020;48.854;8.830;2023-03-23T12:45:01;15.60;1.00
2030;DHT22;1020;48.854;8.830;2023-03-23T12:47:36;15.90;1.00
2030;DHT22;1020;48.854;8.830;2023-03-23T12:50:10;15.90;1.00
2030;DHT22;1020;48.854;8.830;2023-03-23T12:52:42;15.90;1.00
2030;DHT22;1020;48.854;8.830;2023-03-23T12:55:17;16.00;1.00
2030;DHT22;1020;48.854;8.830;2023-03-23T12:57:51;15.90;1.00
2030;DHT22;1020;48.854;8.830;2023-03-23T13:00:23;15.60;1.00
2030;DHT22;1020;48.854;8.830;2023-03-23T13:02:56;15.60;1.00
2030;DHT22;1020;48.854;8.830;2023-03-23T13:05:36;15.50;1.00
2030;DHT22;1020;48.854;8.830;2023-03-23T13:08:11;15.60;1.00
2030;DHT22;1020;48.854;8.830;2023-03-23T13:10:43;15.70;1.00
2030;DHT22;1020;48.854;8.830;2023-03-23T13:13:16;15.70;1.00
2030;DHT22;1020;48.854;8.830;2023-03-23T13:15:49;15.70;1.00
2030;DHT22;1020;48.854;8.830;2023-03-23T13:18:23;15.80;1.00
2030;DHT22;1020;48.854;8.830;2023-03-23T13:21:01;16.00;1.00
2030;DHT22;1020;48.854;8.830;2023-03-23T13:23:31;15.90;1.00
2030;DHT22;1020;48.854;8.830;2023-03-23T13:26:00;15.80;1.00
2030;DHT22;1020;48.854;8.830;2023-03-23T13:28:32;15.70;1.00
2030;DHT22;1020;48.854;8.830;2023-03-23T13:31:01;15.60;1.00
2030;DHT22;1020;48.854;8.830;2023-03-23T13:33:31;15.50;1.00
2030;DHT22;1020;48.854;8.830;2023-03-23T13:36:07;15.60;1.00
2030;DHT22;1020;48.854;8.830;2023-03-23T13:38:35;15.40;1.00
2030;DHT22;1020;48.854;8.830;2023-03-23T13:41:08;15.40;1.00
2030;DHT22;1020;48.854;8.830;2023-03-23T13:43:39;15.40;1.00
2030;DHT22;1020;48.854;8.830;2023-03-23T13:46:12;15.20;1.00
2030;DHT22;1020;48.854;8.830;2023-03-23T13:48:42;15.20;1.00
2030;DHT22;1020;48.854;8.830;2023-03-23T13:51:25;15.20;1.00
2030;DHT22;1020;48.854;8.830;2023-03-23T13:54:06;15.10;1.00
2030;DHT22;1020;48.854;8.830;2023-03-23T13:56:39;15.00;1.00
2030;DHT22;1020;48.854;8.830;2023-03-23T13:59:12;15.00;1.00
2030;DHT22;1020;48.854;8.830;2023-03-23T14:01:40;15.10;1.00
2030;DHT22;1020;48.854;8.830;2023-03-23T14:04:13;15.00;1.00
2030;DHT22;1020;48.854;8.830;2023-03-23T14:06:42;15.00;1.00
2030;DHT22;1020;48.854;8.830;2023-03-23T14:09:13;14.90;1.00
2030;DHT22;1020;48.854;8.830;2023-03-23T14:11:48;14.90;1.00
2030;DHT22;1020;48.854;8.830;2023-03-23T14:14:24;14.90;1.00
2030;DHT22;1020;48.854;8.830;2023-03-23T14:16:51;15.10;1.00
2030;DHT22;1020;48.854;8.830;2023-03-23T14:19:25;15.10;1.00
2030;DHT22;1020;48.854;8.830;2023-03-23T14:21:55;15.20;1.00
2030;DHT22;1020;48.854;8.830;2023-03-23T14:24:24;15.20;1.00
2030;DHT22;1020;48.854;8.830;2023-03-23T14:26:54;15.20;1.00
2030;DHT22;1020;48.854;8.830;2023-03-23T14:29:28;15.30;1.00
2030;DHT22;1020;48.854;8.830;2023-03-23T14:31:57;15.30;1.00
2030;DHT22;1020;48.854;8.830;2023-03-23T14:34:25;15.30;1.00
2030;DHT22;1020;48.854;8.830;2023-03-23T14:36:53;15.50;1.00
2030;DHT22;1020;48.854;8.830;2023-03-23T14:39:23;15.60;1.00
2030;DHT22;1020;48.854;8.830;2023-03-23T14:41:51;15.60;1.00
2030;DHT22;1020;48.854;8.830;2023-03-23T14:44:23;15.70;1.00
2030;DHT22;1020;48.854;8.830;2023-03-23T14:46:53;15.80;1.00
2030;DHT22;1020;48.854;8.830;2023-03-23T14:49:35;15.70;1.00
2030;DHT22;1020;48.854;8.830;2023-03-23T14:52:09;15.80;1.00
2030;DHT22;1020;48.854;8.830;2023-03-23T14:54:37;15.90;1.00
2030;DHT22;1020;48.854;8.830;2023-03-23T14:57:12;16.00;1.00
2030;DHT22;1020;48.854;8.830;2023-03-23T14:59:40;16.00;1.00
2030;DHT22;1020;48.854;8.830;2023-03-23T15:02:12;16.00;1.00
2030;DHT22;1020;48.854;8.830;2023-03-23T15:04:41;16.00;1.00
2030;DHT22;1020;48.854;8.830;2023-03-23T15:07:09;16.00;1.00
2030;DHT22;1020;48.854;8.830;2023-03-23T15:09:40;16.00;1.00
2030;DHT22;1020;48.854;8.830;2023-03-23T15:12:18;15.90;1.00
2030;DHT22;1020;48.854;8.830;2023-03-23T15:14:48;16.00;1.00
2030;DHT22;1020;48.854;8.830;2023-03-23T15:17:20;16.00;1.00
2030;DHT22;1020;48.854;8.830;2023-03-23T15:19:48;16.00;1.00
2030;DHT22;1020;48.854;8.830;2023-03-23T15:22:21;16.00;1.00
2030;DHT22;1020;48.854;8.830;2023-03-23T15:24:49;15.90;1.00
2030;DHT22;1020;48.854;8.830;2023-03-23T15:27:28;15.90;1.00
2030;DHT22;1020;48.854;8.830;2023-03-23T15:29:56;16.10;1.00
2030;DHT22;1020;48.854;8.830;2023-03-23T15:32:27;16.10;1.00
2030;DHT22;1020;48.854;8.830;2023-03-23T15:34:55;16.10;1.00
2030;DHT22;1020;48.854;8.830;2023-03-23T15:37:26;16.20;1.00
2030;DHT22;1020;48.854;8.830;2023-03-23T15:39:54;16.30;1.00
2030;DHT22;1020;48.854;8.830;2023-03-23T15:42:23;16.30;1.00
2030;DHT22;1020;48.854;8.830;2023-03-23T15:45:16;16.40;1.00
2030;DHT22;1020;48.854;8.830;2023-03-23T15:47:49;16.40;1.00
2030;DHT22;1020;48.854;8.830;2023-03-23T15:50:17;16.30;1.00
2030;DHT22;1020;48.854;8.830;2023-03-23T15:52:45;16.30;1.00
2030;DHT22;1020;48.854;8.830;2023-03-23T15:55:24;16.40;1.00
2030;DHT22;1020;48.854;8.830;2023-03-23T15:57:52;16.20;1.00
2030;DHT22;1020;48.854;8.830;2023-03-23T16:00:21;16.20;1.00
2030;DHT22;1020;48.854;8.830;2023-03-23T16:02:52;16.10;1.00
2030;DHT22;1020;48.854;8.830;2023-03-23T16:05:20;16.00;99.90
2030;DHT22;1020;48.854;8.830;2023-03-23T16:07:47;16.00;99.90
2030;DHT22;1020;48.854;8.830;2023-03-23T16:10:16;16.00;99.90
2030;DHT22;1020;48.854;8.830;2023-03-23T16:12:43;15.90;99.90
2030;DHT22;1020;48.854;8.830;2023-03-23T16:15:10;15.90;99.90
2030;DHT22;1020;48.854;8.830;2023-03-23T16:17:37;15.90;99.90
2030;DHT22;1020;48.854;8.830;2023-03-23T16:20:11;15.90;99.90
2030;DHT22;1020;48.854;8.830;2023-03-23T16:22:38;15.90;99.90
2030;DHT22;1020;48.854;8.830;2023-03-23T16:25:06;15.90;99.90
2030;DHT22;1020;48.854;8.830;2023-03-23T16:27:33;15.80;99.90
2030;DHT22;1020;48.854;8.830;2023-03-23T16:30:00;15.80;99.90
2030;DHT22;1020;48.854;8.830;2023-03-23T16:32:28;15.80;99.90
2030;DHT22;1020;48.854;8.830;2023-03-23T16:34:55;15.80;99.90